sensor_id;sensor_type;location;lat;lon;timestamp;pressure;altitude;pressure_sealevel;temperature
75658;BMP280;64255;49.892;17.884;2023-06-14T05:02:32;98684.47;;;10.78
75658;BMP280;64255;49.892;17.884;2023-06-14T05:05:19;98690.63;;;10.84
75658;BMP280;64255;49.892;17.884;2023-06-14T05:08:05;98685.06;;;10.58
75658;BMP280;64255;49.892;17.884;2023-06-14T05:10:52;98694.88;;;10.76
75658;BMP280;64255;49.892;17.884;2023-06-14T05:13:38;98698.75;;;10.75
75658;BMP280;64255;49.892;17.884;2023-06-14T05:16:25;98697.38;;;10.79
75658;BMP280;64255;49.892;17.884;2023-06-14T05:19:12;98702.50;;;10.92
75658;BMP280;64255;49.892;17.884;2023-06-14T05:21:58;98710.44;;;10.86
75658;BMP280;64255;49.892;17.884;2023-06-14T05:24:44;98716.78;;;10.50
75658;BMP280;64255;49.892;17.884;2023-06-14T05:27:31;98706.16;;;10.41
75658;BMP280;64255;49.892;17.884;2023-06-14T05:30:18;98713.78;;;10.57
75658;BMP280;64255;49.892;17.884;2023-06-14T05:33:05;98714.00;;;10.68
75658;BMP280;64255;49.892;17.884;2023-06-14T05:35:51;98716.81;;;10.65
75658;BMP280;64255;49.892;17.884;2023-06-14T05:38:38;98719.41;;;10.59
75658;BMP280;64255;49.892;17.884;2023-06-14T05:41:27;98712.84;;;10.60
75658;BMP280;64255;49.892;17.884;2023-06-14T05:44:14;98722.53;;;10.58
75658;BMP280;64255;49.892;17.884;2023-06-14T05:47:00;98720.63;;;10.73
75658;BMP280;64255;49.892;17.884;2023-06-14T05:49:46;98723.16;;;10.92
75658;BMP280;64255;49.892;17.884;2023-06-14T05:52:34;98715.41;;;11.09
75658;BMP280;64255;49.892;17.884;2023-06-14T05:55:21;98718.56;;;11.22
75658;BMP280;64255;49.892;17.884;2023-06-14T05:58:07;98723.38;;;11.18
75658;BMP280;64255;49.892;17.884;2023-06-14T06:00:54;98715.06;;;11.31
75658;BMP280;64255;49.892;17.884;2023-06-14T06:03:41;98718.09;;;11.38
75658;BMP280;64255;49.892;17.884;2023-06-14T06:06:28;98726.59;;;11.52
75658;BMP280;64255;49.892;17.884;2023-06-14T06:09:14;98725.22;;;11.57
75658;BMP280;64255;49.892;17.884;2023-06-14T06:12:01;98738.53;;;11.66
75658;BMP280;64255;49.892;17.884;2023-06-14T06:14:47;98738.13;;;11.73
75658;BMP280;64255;49.892;17.884;2023-06-14T06:17:34;98738.97;;;11.49
75658;BMP280;64255;49.892;17.884;2023-06-14T06:20:20;98744.28;;;10.90
75658;BMP280;64255;49.892;17.884;2023-06-14T06:23:07;98743.09;;;10.76
75658;BMP280;64255;49.892;17.884;2023-06-14T06:25:53;98748.03;;;10.92
75658;BMP280;64255;49.892;17.884;2023-06-14T06:28:40;98748.28;;;10.94
75658;BMP280;64255;49.892;17.884;2023-06-14T06:31:26;98762.94;;;10.84
75658;BMP280;64255;49.892;17.884;2023-06-14T06:34:13;98762.03;;;10.87
75658;BMP280;64255;49.892;17.884;2023-06-14T06:36:59;98765.81;;;10.95
75658;BMP280;64255;49.892;17.884;2023-06-14T06:39:46;98771.03;;;11.14
75658;BMP280;64255;49.892;17.884;2023-06-14T06:42:32;98768.19;;;11.02
75658;BMP280;64255;49.892;17.884;2023-06-14T06:45:19;98773.34;;;11.21
75658;BMP280;64255;49.892;17.884;2023-06-14T06:48:05;98776.78;;;11.36
75658;BMP280;64255;49.892;17.884;2023-06-14T06:50:52;98767.34;;;11.56
75658;BMP280;64255;49.892;17.884;2023-06-14T06:53:38;98784.72;;;11.61
75658;BMP280;64255;49.892;17.884;2023-06-14T06:56:25;98779.38;;;11.76
75658;BMP280;64255;49.892;17.884;2023-06-14T06:59:11;98774.56;;;11.80
75658;BMP280;64255;49.892;17.884;2023-06-14T07:01:58;98781.38;;;11.81
75658;BMP280;64255;49.892;17.884;2023-06-14T07:04:44;98789.25;;;11.84
75658;BMP280;64255;49.892;17.884;2023-06-14T07:07:31;98788.44;;;12.14
75658;BMP280;64255;49.892;17.884;2023-06-14T07:10:18;98786.72;;;12.31
75658;BMP280;64255;49.892;17.884;2023-06-14T07:13:05;98782.63;;;12.57
75658;BMP280;64255;49.892;17.884;2023-06-14T07:15:58;98785.75;;;12.76
75658;BMP280;64255;49.892;17.884;2023-06-14T07:18:45;98789.13;;;12.91
75658;BMP280;64255;49.892;17.884;2023-06-14T07:21:31;98783.25;;;13.45
75658;BMP280;64255;49.892;17.884;2023-06-14T07:24:18;98786.63;;;13.72
75658;BMP280;64255;49.892;17.884;2023-06-14T07:27:05;98790.34;;;13.80
75658;BMP280;64255;49.892;17.884;2023-06-14T07:29:52;98790.16;;;13.52
75658;BMP280;64255;49.892;17.884;2023-06-14T07:32:38;98785.94;;;13.45
75658;BMP280;64255;49.892;17.884;2023-06-14T07:35:25;98791.97;;;13.34
75658;BMP280;64255;49.892;17.884;2023-06-14T07:38:11;98782.88;;;13.64
75658;BMP280;64255;49.892;17.884;2023-06-14T07:40:58;98794.75;;;14.21
75658;BMP280;64255;49.892;17.884;2023-06-14T07:43:44;98785.22;;;14.31
75658;BMP280;64255;49.892;17.884;2023-06-14T07:46:31;98786.13;;;14.83
75658;BMP280;64255;49.892;17.884;2023-06-14T07:49:17;98791.41;;;14.43
75658;BMP280;64255;49.892;17.884;2023-06-14T07:52:04;98781.81;;;14.31
75658;BMP280;64255;49.892;17.884;2023-06-14T07:54:51;98790.97;;;14.62
75658;BMP280;64255;49.892;17.884;2023-06-14T07:57:38;98784.41;;;14.91
75658;BMP280;64255;49.892;17.884;2023-06-14T08:00:24;98791.78;;;14.96
75658;BMP280;64255;49.892;17.884;2023-06-14T08:03:11;98797.22;;;15.41
75658;BMP280;64255;49.892;17.884;2023-06-14T08:05:57;98783.41;;;14.71
75658;BMP280;64255;49.892;17.884;2023-06-14T08:08:44;98777.81;;;15.49
75658;BMP280;64255;49.892;17.884;2023-06-14T08:11:31;98782.00;;;15.33
75658;BMP280;64255;49.892;17.884;2023-06-14T08:14:17;98782.19;;;14.84
75658;BMP280;64255;49.892;17.884;2023-06-14T08:17:04;98778.72;;;14.66
75658;BMP280;64255;49.892;17.884;2023-06-14T08:19:51;98780.25;;;15.07
75658;BMP280;64255;49.892;17.884;2023-06-14T08:22:37;98784.22;;;15.17
75658;BMP280;64255;49.892;17.884;2023-06-14T08:25:24;98781.22;;;14.70
75658;BMP280;64255;49.892;17.884;2023-06-14T08:28:11;98788.31;;;14.90
75658;BMP280;64255;49.892;17.884;2023-06-14T08:30:57;98793.00;;;14.95
75658;BMP280;64255;49.892;17.884;2023-06-14T08:33:44;98785.44;;;14.94
75658;BMP280;64255;49.892;17.884;2023-06-14T08:36:30;98784.44;;;15.14
75658;BMP280;64255;49.892;17.884;2023-06-14T08:39:17;98787.16;;;15.42
75658;BMP280;64255;49.892;17.884;2023-06-14T08:42:04;98782.41;;;15.76
75658;BMP280;64255;49.892;17.884;2023-06-14T08:44:51;98786.63;;;15.55
75658;BMP280;64255;49.892;17.884;2023-06-14T08:47:38;98784.44;;;15.36
75658;BMP280;64255;49.892;17.884;2023-06-14T08:50:26;98778.78;;;15.63
75658;BMP280;64255;49.892;17.884;2023-06-14T08:53:14;98778.66;;;16.08
75658;BMP280;64255;49.892;17.884;2023-06-14T08:56:03;98777.81;;;16.36
75658;BMP280;64255;49.892;17.884;2023-06-14T08:58:49;98783.28;;;17.02
75658;BMP280;64255;49.892;17.884;2023-06-14T09:01:37;98784.06;;;16.97
75658;BMP280;64255;49.892;17.884;2023-06-14T09:04:24;98779.84;;;16.65
75658;BMP280;64255;49.892;17.884;2023-06-14T09:07:11;98785.00;;;16.10
75658;BMP280;64255;49.892;17.884;2023-06-14T09:10:10;98786.13;;;15.62
75658;BMP280;64255;49.892;17.884;2023-06-14T09:12:57;98789.34;;;15.60
75658;BMP280;64255;49.892;17.884;2023-06-14T09:15:43;98793.25;;;15.54
75658;BMP280;64255;49.892;17.884;2023-06-14T09:18:41;98792.03;;;15.49
75658;BMP280;64255;49.892;17.884;2023-06-14T09:21:34;98796.22;;;15.56
75658;BMP280;64255;49.892;17.884;2023-06-14T09:24:20;98793.78;;;16.34
75658;BMP280;64255;49.892;17.884;2023-06-14T09:27:07;98788.06;;;17.21
75658;BMP280;64255;49.892;17.884;2023-06-14T09:29:54;98793.47;;;17.21
75658;BMP280;64255;49.892;17.884;2023-06-14T09:32:41;98794.06;;;17.38
75658;BMP280;64255;49.892;17.884;2023-06-14T09:35:28;98791.81;;;17.67
75658;BMP280;64255;49.892;17.884;2023-06-14T09:38:14;98785.94;;;17.88
75658;BMP280;64255;49.892;17.884;2023-06-14T09:41:04;98792.28;;;17.16
75658;BMP280;64255;49.892;17.884;2023-06-14T09:43:50;98794.00;;;16.83
75658;BMP280;64255;49.892;17.884;2023-06-14T09:46:37;98789.34;;;17.14
75658;BMP280;64255;49.892;17.884;2023-06-14T09:49:24;98793.72;;;16.87
75658;BMP280;64255;49.892;17.884;2023-06-14T09:52:19;98793.00;;;16.86
75658;BMP280;64255;49.892;17.884;2023-06-14T09:55:13;98792.44;;;16.93
75658;BMP280;64255;49.892;17.884;2023-06-14T09:58:07;98800.09;;;16.47
75658;BMP280;64255;49.892;17.884;2023-06-14T10:00:54;98787.84;;;16.41
75658;BMP280;64255;49.892;17.884;2023-06-14T10:03:44;98795.13;;;16.99
75658;BMP280;64255;49.892;17.884;2023-06-14T10:06:34;98798.22;;;16.78
75658;BMP280;64255;49.892;17.884;2023-06-14T10:09:21;98798.06;;;16.59
75658;BMP280;64255;49.892;17.884;2023-06-14T10:12:09;98801.81;;;17.23
75658;BMP280;64255;49.892;17.884;2023-06-14T10:14:55;98797.94;;;16.82
75658;BMP280;64255;49.892;17.884;2023-06-14T10:21:55;98791.34;;;16.77
75658;BMP280;64255;49.892;17.884;2023-06-14T10:24:45;98798.81;;;16.96
75658;BMP280;64255;49.892;17.884;2023-06-14T10:27:31;98782.41;;;17.19
75658;BMP280;64255;49.892;17.884;2023-06-14T10:30:25;98788.84;;;17.46
75658;BMP280;64255;49.892;17.884;2023-06-14T10:33:15;98788.66;;;17.63
75658;BMP280;64255;49.892;17.884;2023-06-14T10:36:10;98788.69;;;17.32
75658;BMP280;64255;49.892;17.884;2023-06-14T10:39:09;98784.97;;;17.36
75658;BMP280;64255;49.892;17.884;2023-06-14T10:41:58;98784.00;;;17.33
75658;BMP280;64255;49.892;17.884;2023-06-14T10:44:52;98769.09;;;18.33
75658;BMP280;64255;49.892;17.884;2023-06-14T10:47:39;98767.34;;;18.16
75658;BMP280;64255;49.892;17.884;2023-06-14T10:50:29;98772.97;;;17.99
75658;BMP280;64255;49.892;17.884;2023-06-14T10:53:24;98774.31;;;18.31
75658;BMP280;64255;49.892;17.884;2023-06-14T10:56:24;98769.81;;;17.76
75658;BMP280;64255;49.892;17.884;2023-06-14T10:59:12;98772.53;;;17.27
75658;BMP280;64255;49.892;17.884;2023-06-14T11:05:09;98766.13;;;16.94
75658;BMP280;64255;49.892;17.884;2023-06-14T11:08:31;98764.56;;;17.59
75658;BMP280;64255;49.892;17.884;2023-06-14T11:11:22;98762.56;;;17.84
75658;BMP280;64255;49.892;17.884;2023-06-14T11:14:10;98767.97;;;17.84
75658;BMP280;64255;49.892;17.884;2023-06-14T11:16:56;98755.97;;;17.80
75658;BMP280;64255;49.892;17.884;2023-06-14T11:19:44;98759.66;;;18.01
75658;BMP280;64255;49.892;17.884;2023-06-14T11:22:40;98750.06;;;18.00
75658;BMP280;64255;49.892;17.884;2023-06-14T11:25:27;98755.34;;;18.12
75658;BMP280;64255;49.892;17.884;2023-06-14T11:28:14;98756.66;;;18.05
75658;BMP280;64255;49.892;17.884;2023-06-14T11:31:04;98745.97;;;18.32
75658;BMP280;64255;49.892;17.884;2023-06-14T11:33:50;98750.22;;;18.08
75658;BMP280;64255;49.892;17.884;2023-06-14T11:36:40;98755.22;;;17.79
75658;BMP280;64255;49.892;17.884;2023-06-14T11:39:26;98755.06;;;18.80
75658;BMP280;64255;49.892;17.884;2023-06-14T11:42:15;98746.63;;;18.51
75658;BMP280;64255;49.892;17.884;2023-06-14T11:45:03;98747.28;;;18.06
75658;BMP280;64255;49.892;17.884;2023-06-14T11:47:50;98754.31;;;17.96
75658;BMP280;64255;49.892;17.884;2023-06-14T11:50:38;98751.19;;;17.67
75658;BMP280;64255;49.892;17.884;2023-06-14T11:53:25;98751.00;;;17.59
75658;BMP280;64255;49.892;17.884;2023-06-14T11:56:12;98749.75;;;17.41
75658;BMP280;64255;49.892;17.884;2023-06-14T11:58:58;98741.47;;;17.33
75658;BMP280;64255;49.892;17.884;2023-06-14T12:01:45;98738.03;;;17.77
75658;BMP280;64255;49.892;17.884;2023-06-14T12:04:31;98735.28;;;17.82
75658;BMP280;64255;49.892;17.884;2023-06-14T12:07:18;98730.00;;;17.71
75658;BMP280;64255;49.892;17.884;2023-06-14T12:10:08;98726.75;;;18.30
75658;BMP280;64255;49.892;17.884;2023-06-14T12:12:59;98732.75;;;18.42
75658;BMP280;64255;49.892;17.884;2023-06-14T12:15:55;98714.41;;;18.15
75658;BMP280;64255;49.892;17.884;2023-06-14T12:18:42;98722.44;;;18.21
75658;BMP280;64255;49.892;17.884;2023-06-14T12:21:28;98715.56;;;18.01
75658;BMP280;64255;49.892;17.884;2023-06-14T12:24:15;98713.53;;;18.26
75658;BMP280;64255;49.892;17.884;2023-06-14T12:27:02;98721.31;;;18.49
75658;BMP280;64255;49.892;17.884;2023-06-14T12:30:00;98713.88;;;18.36
75658;BMP280;64255;49.892;17.884;2023-06-14T12:32:46;98713.44;;;18.32
75658;BMP280;64255;49.892;17.884;2023-06-14T12:35:33;98707.25;;;18.50
75658;BMP280;64255;49.892;17.884;2023-06-14T12:38:19;98708.78;;;18.78
75658;BMP280;64255;49.892;17.884;2023-06-14T12:41:06;98707.44;;;18.52
75658;BMP280;64255;49.892;17.884;2023-06-14T12:43:52;98703.06;;;17.98
75658;BMP280;64255;49.892;17.884;2023-06-14T12:46:41;98701.81;;;18.50
75658;BMP280;64255;49.892;17.884;2023-06-14T12:49:27;98709.19;;;18.69
75658;BMP280;64255;49.892;17.884;2023-06-14T12:52:14;98707.88;;;18.89
75658;BMP280;64255;49.892;17.884;2023-06-14T12:55:00;98709.81;;;18.43
75658;BMP280;64255;49.892;17.884;2023-06-14T12:57:47;98714.25;;;18.27
75658;BMP280;64255;49.892;17.884;2023-06-14T13:00:33;98711.59;;;17.83
75658;BMP280;64255;49.892;17.884;2023-06-14T13:03:20;98710.97;;;17.96
75658;BMP280;64255;49.892;17.884;2023-06-14T13:06:06;98707.59;;;17.90
75658;BMP280;64255;49.892;17.884;2023-06-14T13:08:53;98704.88;;;17.90
75658;BMP280;64255;49.892;17.884;2023-06-14T13:11:39;98703.78;;;17.79
75658;BMP280;64255;49.892;17.884;2023-06-14T13:14:26;98701.13;;;17.55
75658;BMP280;64255;49.892;17.884;2023-06-14T13:17:12;98710.78;;;17.50
75658;BMP280;64255;49.892;17.884;2023-06-14T13:19:59;98704.63;;;17.49
75658;BMP280;64255;49.892;17.884;2023-06-14T13:22:46;98695.50;;;17.52
75658;BMP280;64255;49.892;17.884;2023-06-14T13:25:34;98698.00;;;17.69
75658;BMP280;64255;49.892;17.884;2023-06-14T13:28:20;98701.81;;;17.61
75658;BMP280;64255;49.892;17.884;2023-06-14T13:31:06;98696.38;;;17.61
75658;BMP280;64255;49.892;17.884;2023-06-14T13:33:53;98696.56;;;17.88
75658;BMP280;64255;49.892;17.884;2023-06-14T13:36:39;98700.88;;;17.77
75658;BMP280;64255;49.892;17.884;2023-06-14T13:39:26;98698.50;;;17.68
75658;BMP280;64255;49.892;17.884;2023-06-14T13:42:13;98696.47;;;17.74
75658;BMP280;64255;49.892;17.884;2023-06-14T13:44:59;98695.25;;;17.75
75658;BMP280;64255;49.892;17.884;2023-06-14T13:47:46;98696.75;;;17.90
75658;BMP280;64255;49.892;17.884;2023-06-14T13:50:32;98696.34;;;17.85
75658;BMP280;64255;49.892;17.884;2023-06-14T13:53:19;98690.53;;;17.57
75658;BMP280;64255;49.892;17.884;2023-06-14T13:56:05;98688.69;;;17.65
75658;BMP280;64255;49.892;17.884;2023-06-14T13:58:52;98690.31;;;17.74
75658;BMP280;64255;49.892;17.884;2023-06-14T14:01:39;98695.72;;;17.74
75658;BMP280;64255;49.892;17.884;2023-06-14T14:04:26;98689.63;;;17.92
75658;BMP280;64255;49.892;17.884;2023-06-14T14:07:12;98685.28;;;17.83
75658;BMP280;64255;49.892;17.884;2023-06-14T14:09:59;98686.75;;;17.84
75658;BMP280;64255;49.892;17.884;2023-06-14T14:12:45;98691.34;;;17.90
75658;BMP280;64255;49.892;17.884;2023-06-14T14:15:32;98690.75;;;17.78
75658;BMP280;64255;49.892;17.884;2023-06-14T14:18:19;98691.13;;;17.68
75658;BMP280;64255;49.892;17.884;2023-06-14T14:21:06;98687.50;;;17.41
75658;BMP280;64255;49.892;17.884;2023-06-14T14:23:52;98683.09;;;17.38
75658;BMP280;64255;49.892;17.884;2023-06-14T14:26:39;98687.31;;;17.58
75658;BMP280;64255;49.892;17.884;2023-06-14T14:29:26;98689.97;;;18.02
75658;BMP280;64255;49.892;17.884;2023-06-14T14:32:13;98686.22;;;18.05
75658;BMP280;64255;49.892;17.884;2023-06-14T14:34:59;98680.22;;;17.93
75658;BMP280;64255;49.892;17.884;2023-06-14T14:37:46;98685.34;;;17.97
75658;BMP280;64255;49.892;17.884;2023-06-14T14:40:33;98680.25;;;18.26
75658;BMP280;64255;49.892;17.884;2023-06-14T14:43:19;98687.06;;;18.13
75658;BMP280;64255;49.892;17.884;2023-06-14T14:46:06;98676.91;;;18.19
75658;BMP280;64255;49.892;17.884;2023-06-14T14:48:52;98689.13;;;18.26
75658;BMP280;64255;49.892;17.884;2023-06-14T14:51:39;98687.03;;;18.32
75658;BMP280;64255;49.892;17.884;2023-06-14T14:54:26;98687.84;;;17.95
75658;BMP280;64255;49.892;17.884;2023-06-14T14:57:12;98691.69;;;18.18
75658;BMP280;64255;49.892;17.884;2023-06-14T14:59:59;98688.03;;;18.35
75658;BMP280;64255;49.892;17.884;2023-06-14T15:02:45;98682.41;;;18.14
75658;BMP280;64255;49.892;17.884;2023-06-14T15:05:32;98680.50;;;18.09
75658;BMP280;64255;49.892;17.884;2023-06-14T15:08:19;98684.06;;;18.36
75658;BMP280;64255;49.892;17.884;2023-06-14T15:11:06;98683.13;;;18.14
75658;BMP280;64255;49.892;17.884;2023-06-14T15:13:53;98690.44;;;18.19
75658;BMP280;64255;49.892;17.884;2023-06-14T15:16:39;98686.34;;;18.13
75658;BMP280;64255;49.892;17.884;2023-06-14T15:19:26;98687.31;;;17.77
75658;BMP280;64255;49.892;17.884;2023-06-14T15:22:13;98685.13;;;17.95
75658;BMP280;64255;49.892;17.884;2023-06-14T15:24:59;98686.38;;;17.94
75658;BMP280;64255;49.892;17.884;2023-06-14T15:27:46;98684.75;;;17.85
75658;BMP280;64255;49.892;17.884;2023-06-14T15:30:32;98685.91;;;17.90
75658;BMP280;64255;49.892;17.884;2023-06-14T15:33:19;98681.63;;;18.00
75658;BMP280;64255;49.892;17.884;2023-06-14T15:36:06;98685.34;;;18.16
75658;BMP280;64255;49.892;17.884;2023-06-14T15:38:53;98670.72;;;18.51
75658;BMP280;64255;49.892;17.884;2023-06-14T15:41:39;98676.53;;;18.74
75658;BMP280;64255;49.892;17.884;2023-06-14T15:44:26;98671.09;;;18.29
75658;BMP280;64255;49.892;17.884;2023-06-14T15:47:13;98684.47;;;18.40
75658;BMP280;64255;49.892;17.884;2023-06-14T15:50:00;98676.59;;;18.23
75658;BMP280;64255;49.892;17.884;2023-06-14T15:52:47;98676.31;;;18.27
75658;BMP280;64255;49.892;17.884;2023-06-14T15:55:33;98670.19;;;18.07
75658;BMP280;64255;49.892;17.884;2023-06-14T15:58:20;98668.56;;;18.17
75658;BMP280;64255;49.892;17.884;2023-06-14T16:01:06;98668.25;;;18.21
75658;BMP280;64255;49.892;17.884;2023-06-14T16:03:53;98670.97;;;18.21
75658;BMP280;64255;49.892;17.884;2023-06-14T16:06:40;98675.50;;;18.13
75658;BMP280;64255;49.892;17.884;2023-06-14T16:09:26;98671.34;;;18.12
75658;BMP280;64255;49.892;17.884;2023-06-14T16:12:13;98675.97;;;17.79
75658;BMP280;64255;49.892;17.884;2023-06-14T16:14:59;98680.47;;;17.76
75658;BMP280;64255;49.892;17.884;2023-06-14T16:17:46;98680.09;;;17.85
75658;BMP280;64255;49.892;17.884;2023-06-14T16:20:32;98685.75;;;17.88
75658;BMP280;64255;49.892;17.884;2023-06-14T16:23:19;98683.88;;;17.96
75658;BMP280;64255;49.892;17.884;2023-06-14T16:26:10;98682.66;;;17.97
75658;BMP280;64255;49.892;17.884;2023-06-14T16:28:57;98692.75;;;17.96
75658;BMP280;64255;49.892;17.884;2023-06-14T16:31:43;98693.38;;;18.02
75658;BMP280;64255;49.892;17.884;2023-06-14T16:34:30;98688.56;;;17.95
75658;BMP280;64255;49.892;17.884;2023-06-14T16:37:16;98695.75;;;17.93
75658;BMP280;64255;49.892;17.884;2023-06-14T16:40:03;98696.34;;;17.85
75658;BMP280;64255;49.892;17.884;2023-06-14T16:42:50;98698.38;;;17.79
75658;BMP280;64255;49.892;17.884;2023-06-14T16:45:36;98700.59;;;17.81
75658;BMP280;64255;49.892;17.884;2023-06-14T16:48:23;98699.75;;;17.67
75658;BMP280;64255;49.892;17.884;2023-06-14T16:51:09;98700.44;;;17.48
75658;BMP280;64255;49.892;17.884;2023-06-14T16:53:56;98709.59;;;17.45
75658;BMP280;64255;49.892;17.884;2023-06-14T16:56:42;98711.59;;;17.45
75658;BMP280;64255;49.892;17.884;2023-06-14T16:59:29;98712.53;;;17.23
